Forside
METAR-TAF:

METAR-TAF

Lufthavne :

London Luton Airport

Luton, England

Breddekreds: 51-52N, længdekreds: 000-22W, højde: 160 m

Aktuelle vejr

Denne rapport blev lavet for 49 minutter siden, kl. 13:20 UTC
Vind 11 kt fra østnordøst
Temperatur 8°C
Fugtighed 53%
Tryk 1031 hPa
Sigt 10 km eller mere
Brudte skyer i en højde af 4000 ft

METAR: EGGW 311320Z AUTO 06011KT 9999 BKN040 08/M01 Q1031

Tid: 15:09 (14:09 UTC)

Vejrudsigter

Denne rapport blev lavet for 3 timer og 7 minutter siden, kl. 11:02 UTC
Foreløbig gælder fra 31 på 12 UTC til 01 på 12 UTC
Vind 11 kt fra nordøst
Sigt 10 km eller mere
Spredte skyer i en højde af 3000 ft
ændring
fra 31 på 21 UTC til 31 på 24 UTC
Vind 3 kt fra varierende retninger
Sandsynlighed 30% :
Midlertidig
fra 01 på 11 UTC til 01 på 12 UTC
Sigt: 8000 m
let regnbyger

TAF: EGGW 311102Z 3112/0112 04011KT 9999 SCT030 BECMG 3121/3124 VRB03KT PROB30 TEMPO 0111/0112 8000 -SHRA

Vejrobservationer og prognoser fra mere end 4000 lufthavne (METAR og TAF).

De gule og røde prikker repræsenterer de meteorologiske stationer.

Flyt musen over at se navnet på stationen.

Så klik over at se vejr observationer og prognoser.

At skifte det kort: Klik på de grønne knapper med et sort kors for at zoome ind; på den grønne knap med en bindestreg for at zoome ud; eller på de grønne pile for tilstødende kort.


METAR-TAF: